createdAt,value
2022-12-22T00:01:30.561Z,10.05
2022-12-22T00:04:34.782Z,10.10
2022-12-22T00:07:38.515Z,10.57
2022-12-22T00:13:46.583Z,9.15
2022-12-22T00:16:53.179Z,9.25
2022-12-22T00:19:57.309Z,9.30
2022-12-22T00:23:01.501Z,9.57
2022-12-22T00:26:06.247Z,9.55
2022-12-22T00:29:10.366Z,8.23
2022-12-22T00:32:14.303Z,9.88
2022-12-22T00:35:18.873Z,9.15
2022-12-22T00:38:35.551Z,9.85
2022-12-22T00:41:39.542Z,8.98
2022-12-22T00:44:43.654Z,8.90
2022-12-22T00:47:49.719Z,10.07
2022-12-22T00:50:55.069Z,8.77
2022-12-22T00:53:59.041Z,9.75
2022-12-22T00:57:02.959Z,10.05
2022-12-22T01:00:09.018Z,8.88
2022-12-22T01:03:12.962Z,8.63
2022-12-22T01:06:19.439Z,9.13
2022-12-22T01:09:24.484Z,9.00
2022-12-22T01:12:42.002Z,8.88
2022-12-22T01:15:48.061Z,9.18
2022-12-22T01:18:52.121Z,9.07
2022-12-22T01:21:56.001Z,9.07
2022-12-22T01:24:59.988Z,7.70
2022-12-22T01:28:04.180Z,8.70
2022-12-22T01:31:08.720Z,8.93
2022-12-22T01:34:12.574Z,8.93
2022-12-22T01:37:16.452Z,9.40
2022-12-22T01:40:20.435Z,10.57
2022-12-22T01:43:37.762Z,9.27
2022-12-22T01:46:50.929Z,9.30
2022-12-22T01:50:00.821Z,11.00
2022-12-22T01:53:04.827Z,9.43
2022-12-22T01:56:08.899Z,9.77
2022-12-22T01:59:15.905Z,9.68
2022-12-22T02:02:23.475Z,9.40
2022-12-22T02:05:29.359Z,9.82
2022-12-22T02:08:46.827Z,9.07
2022-12-22T02:12:21.446Z,8.70
2022-12-22T02:15:44.247Z,9.18
2022-12-22T02:18:59.055Z,10.50
2022-12-22T02:22:21.787Z,8.82
2022-12-22T02:25:45.534Z,8.55
2022-12-22T02:28:51.899Z,8.95
2022-12-22T02:31:57.758Z,9.10
2022-12-22T02:35:02.486Z,10.40
2022-12-22T02:38:34.846Z,10.40
2022-12-22T02:41:41.926Z,9.73
2022-12-22T02:45:19.001Z,9.80
2022-12-22T02:48:31.259Z,10.85
2022-12-22T02:51:44.350Z,9.00
2022-12-22T02:54:49.995Z,9.57
2022-12-22T02:57:53.850Z,9.32
2022-12-22T03:00:58.209Z,9.57
2022-12-22T03:04:02.325Z,11.02
2022-12-22T03:07:06.245Z,10.73
2022-12-22T03:10:10.125Z,10.85
2022-12-22T03:16:20.750Z,10.60
2022-12-22T03:19:24.507Z,11.63
2022-12-22T03:22:28.559Z,9.48
2022-12-22T03:25:33.014Z,8.88
2022-12-22T03:28:19.099Z,9.32
2022-12-22T03:31:06.258Z,10.05
2022-12-22T03:33:51.765Z,10.77
2022-12-22T03:36:37.120Z,10.70
2022-12-22T03:39:22.525Z,9.95
2022-12-22T03:42:30.420Z,10.65
2022-12-22T03:45:34.491Z,10.23
2022-12-22T03:51:05.177Z,7.68
2022-12-22T03:53:50.703Z,9.45
2022-12-22T03:56:37.045Z,9.45
2022-12-22T03:59:22.689Z,10.27
2022-12-22T04:02:08.344Z,9.63
2022-12-22T04:04:53.743Z,11.20
2022-12-22T04:07:39.608Z,10.15
2022-12-22T04:10:43.856Z,11.13
2022-12-22T04:13:29.819Z,11.77
2022-12-22T04:16:15.640Z,11.60
2022-12-22T04:19:02.160Z,12.23
2022-12-22T04:21:48.470Z,12.50
2022-12-22T04:24:34.255Z,12.80
2022-12-22T04:27:19.915Z,12.02
2022-12-22T04:30:06.784Z,11.40
2022-12-22T04:32:51.889Z,14.85
2022-12-22T04:35:37.520Z,10.60
2022-12-22T04:38:23.093Z,12.20
2022-12-22T04:41:09.119Z,11.23
2022-12-22T04:43:54.539Z,11.40
2022-12-22T04:46:39.824Z,11.50
2022-12-22T04:49:25.433Z,9.93
2022-12-22T04:52:11.286Z,11.02
2022-12-22T04:54:56.546Z,10.73
2022-12-22T04:57:41.891Z,10.60
2022-12-22T05:00:27.498Z,10.38
2022-12-22T05:03:12.878Z,8.35
2022-12-22T05:05:58.525Z,8.93
2022-12-22T05:08:44.022Z,9.07
2022-12-22T05:11:29.767Z,8.32
2022-12-22T05:14:15.496Z,9.07
2022-12-22T05:17:00.986Z,8.18
2022-12-22T05:19:46.322Z,9.45
2022-12-22T05:22:31.680Z,8.07
2022-12-22T05:25:18.061Z,8.05
2022-12-22T05:28:03.459Z,8.20
2022-12-22T05:30:48.707Z,8.80
2022-12-22T05:33:34.285Z,8.05
2022-12-22T05:36:20.036Z,7.60
2022-12-22T05:39:05.361Z,8.10
2022-12-22T05:41:50.761Z,9.10
2022-12-22T05:44:36.561Z,7.78
2022-12-22T05:47:22.083Z,8.13
2022-12-22T05:50:08.661Z,8.38
2022-12-22T05:52:55.033Z,7.68
2022-12-22T05:55:40.567Z,7.18
2022-12-22T05:58:26.220Z,7.15
2022-12-22T06:01:11.866Z,8.88
2022-12-22T06:04:00.371Z,7.90
2022-12-22T06:06:46.552Z,6.93
2022-12-22T06:09:32.174Z,7.20
2022-12-22T06:12:17.530Z,6.70
2022-12-22T06:15:04.209Z,6.95
2022-12-22T06:17:49.796Z,6.85
2022-12-22T06:20:35.467Z,6.90
2022-12-22T06:23:22.331Z,6.07
2022-12-22T06:26:09.071Z,6.05
2022-12-22T06:28:54.963Z,5.88
2022-12-22T06:31:40.495Z,5.32
2022-12-22T06:34:26.025Z,5.03
2022-12-22T06:37:11.756Z,5.20
2022-12-22T06:39:57.224Z,5.03
2022-12-22T06:43:08.033Z,5.10
2022-12-22T06:45:54.339Z,4.63
2022-12-22T06:48:40.216Z,3.50
2022-12-22T06:51:25.801Z,4.30
2022-12-22T06:54:11.326Z,3.80
2022-12-22T06:56:56.979Z,4.32
2022-12-22T06:59:42.677Z,4.07
2022-12-22T07:02:28.303Z,4.18
2022-12-22T07:05:15.620Z,4.25
2022-12-22T07:08:07.792Z,4.50
2022-12-22T07:11:00.203Z,4.53
2022-12-22T07:13:46.123Z,5.38
2022-12-22T07:16:31.446Z,4.60
2022-12-22T07:19:17.217Z,4.82
2022-12-22T07:22:04.103Z,4.80
2022-12-22T07:24:50.272Z,5.03
2022-12-22T07:27:35.630Z,5.25
2022-12-22T07:30:21.517Z,6.57
2022-12-22T07:33:06.879Z,5.60
2022-12-22T07:36:04.107Z,4.72
2022-12-22T07:38:51.217Z,5.47
2022-12-22T07:41:54.856Z,5.47
2022-12-22T07:44:40.347Z,4.97
2022-12-22T07:47:30.072Z,5.22
2022-12-22T07:50:32.935Z,4.90
2022-12-22T07:53:18.387Z,4.72
2022-12-22T07:56:05.334Z,5.63
2022-12-22T07:58:50.597Z,5.40
2022-12-22T08:01:36.567Z,6.18
2022-12-22T08:04:22.739Z,4.25
2022-12-22T08:07:08.668Z,4.97
2022-12-22T08:09:54.370Z,4.85
2022-12-22T08:12:39.831Z,4.57
2022-12-22T08:15:25.813Z,5.57
2022-12-22T08:18:11.418Z,5.35
2022-12-22T08:20:56.750Z,4.95
2022-12-22T08:23:42.561Z,6.00
2022-12-22T08:26:38.596Z,5.57
2022-12-22T08:29:37.838Z,5.97
2022-12-22T08:32:23.381Z,6.63
2022-12-22T08:35:10.686Z,6.10
2022-12-22T08:37:56.289Z,6.78
2022-12-22T08:40:45.425Z,7.20
2022-12-22T08:43:33.587Z,8.70
2022-12-22T08:46:19.167Z,7.15
2022-12-22T08:49:04.642Z,8.32
2022-12-22T08:51:51.205Z,8.27
2022-12-22T08:54:36.629Z,8.65
2022-12-22T08:57:23.116Z,8.95
2022-12-22T09:00:10.881Z,8.65
2022-12-22T09:02:56.506Z,6.78
2022-12-22T09:05:42.502Z,6.18
2022-12-22T09:08:28.248Z,5.35
2022-12-22T09:11:13.767Z,4.40
2022-12-22T09:14:01.314Z,4.50
2022-12-22T09:16:46.620Z,4.80
2022-12-22T09:19:32.117Z,4.82
2022-12-22T09:22:23.419Z,5.90
2022-12-22T09:25:14.213Z,5.47
2022-12-22T09:27:59.783Z,5.75
2022-12-22T09:30:53.278Z,5.95
2022-12-22T09:33:38.876Z,6.57
2022-12-22T09:36:27.039Z,6.15
2022-12-22T09:39:13.227Z,7.03
2022-12-22T09:41:59.392Z,6.78
2022-12-22T09:44:47.272Z,7.43
2022-12-22T09:47:38.816Z,7.28
2022-12-22T09:50:26.568Z,7.13
2022-12-22T09:53:21.414Z,7.28
2022-12-22T09:56:11.418Z,7.20
2022-12-22T09:58:58.349Z,7.03
2022-12-22T10:01:50.000Z,6.32
2022-12-22T10:04:44.578Z,6.70
2022-12-22T10:07:40.125Z,5.88
2022-12-22T10:10:28.555Z,5.60
2022-12-22T10:13:18.716Z,5.50
2022-12-22T10:16:24.587Z,4.97
2022-12-22T10:19:12.545Z,6.40
2022-12-22T10:22:18.353Z,5.00
2022-12-22T10:25:06.240Z,5.90
2022-12-22T10:27:52.775Z,4.18
2022-12-22T10:31:43.296Z,4.43
2022-12-22T10:34:29.949Z,5.05
2022-12-22T10:37:15.505Z,4.65
2022-12-22T10:40:22.760Z,4.60
2022-12-22T10:43:08.082Z,4.80
2022-12-22T10:45:55.688Z,5.05
2022-12-22T10:48:41.388Z,4.78
2022-12-22T10:51:26.779Z,4.28
2022-12-22T10:54:34.123Z,4.90
2022-12-22T10:57:19.659Z,4.95
2022-12-22T11:00:26.912Z,5.22
2022-12-22T11:03:19.006Z,5.05
2022-12-22T11:06:13.288Z,6.50
2022-12-22T11:09:23.986Z,5.30
2022-12-22T11:12:12.991Z,5.15
2022-12-22T11:15:18.643Z,6.15
2022-12-22T11:18:35.461Z,6.07
2022-12-22T11:21:41.881Z,5.07
2022-12-22T11:24:59.312Z,4.75
2022-12-22T11:27:46.254Z,5.43
2022-12-22T11:31:10.700Z,4.53
2022-12-22T11:34:24.967Z,4.50
2022-12-22T11:37:31.570Z,4.28
2022-12-22T11:40:32.533Z,5.00
2022-12-22T11:43:44.784Z,4.03
2022-12-22T11:46:44.559Z,3.72
2022-12-22T11:49:42.785Z,3.97
2022-12-22T11:52:46.877Z,3.70
2022-12-22T11:55:43.444Z,3.20
2022-12-22T11:58:47.460Z,3.33
2022-12-22T12:01:41.942Z,3.50
2022-12-22T12:04:55.703Z,3.33
2022-12-22T12:08:16.043Z,5.22
2022-12-22T12:11:31.006Z,3.10
2022-12-22T12:14:48.558Z,3.10
2022-12-22T12:18:00.921Z,3.40
2022-12-22T12:21:09.212Z,3.00
2022-12-22T12:24:07.553Z,4.25
2022-12-22T12:27:08.389Z,3.40
2022-12-22T12:33:42.151Z,3.03
2022-12-22T12:36:42.138Z,3.90
2022-12-22T12:39:41.352Z,2.53
2022-12-22T12:42:54.171Z,3.50
2022-12-22T12:45:46.032Z,3.63
2022-12-22T12:48:34.296Z,3.67
2022-12-22T12:51:45.771Z,3.95
2022-12-22T12:54:49.973Z,5.25
2022-12-22T12:57:50.280Z,3.60
2022-12-22T13:00:35.561Z,3.30
2022-12-22T13:03:53.337Z,3.67
2022-12-22T13:06:51.893Z,3.92
2022-12-22T13:10:07.788Z,4.35
2022-12-22T13:12:54.904Z,4.20
2022-12-22T13:15:42.966Z,5.15
2022-12-22T13:18:34.268Z,4.10
2022-12-22T13:24:37.044Z,4.35
2022-12-22T13:27:23.471Z,3.45
2022-12-22T13:30:15.639Z,4.28
2022-12-22T13:33:02.350Z,4.53
2022-12-22T13:35:54.944Z,4.97
2022-12-22T13:38:42.203Z,5.47
2022-12-22T13:41:28.815Z,3.97
2022-12-22T13:44:28.478Z,4.50
2022-12-22T13:47:15.361Z,5.40
2022-12-22T13:50:10.974Z,3.70
2022-12-22T13:52:58.019Z,3.60
2022-12-22T13:55:48.036Z,5.30
2022-12-22T13:58:39.664Z,5.45
2022-12-22T14:01:26.515Z,4.88
2022-12-22T14:04:13.466Z,5.22
2022-12-22T14:07:13.882Z,5.18
2022-12-22T14:09:59.534Z,5.57
2022-12-22T14:12:47.247Z,5.53
2022-12-22T14:15:33.099Z,4.93
2022-12-22T14:18:23.385Z,3.60
2022-12-22T14:21:10.040Z,6.05
2022-12-22T14:23:56.385Z,6.13
2022-12-22T14:26:43.138Z,4.45
2022-12-22T14:29:30.362Z,4.90
2022-12-22T14:32:41.117Z,5.35
2022-12-22T14:35:31.658Z,4.30
2022-12-22T14:38:23.789Z,4.45
2022-12-22T14:41:42.887Z,4.38
2022-12-22T14:44:32.287Z,5.88
2022-12-22T14:47:21.177Z,5.05
2022-12-22T14:50:20.903Z,4.90
2022-12-22T14:53:06.698Z,5.35
2022-12-22T14:55:53.170Z,5.18
2022-12-22T14:58:42.192Z,3.75
2022-12-22T15:01:28.856Z,4.43
2022-12-22T15:04:17.988Z,4.78
2022-12-22T15:10:29.054Z,5.35
2022-12-22T15:13:23.944Z,5.45
2022-12-22T15:16:18.272Z,5.60
2022-12-22T15:19:05.336Z,3.45
2022-12-22T15:21:51.855Z,4.40
2022-12-22T15:24:37.762Z,3.25
2022-12-22T15:27:23.422Z,3.65
2022-12-22T15:30:09.914Z,3.22
2022-12-22T15:32:56.945Z,3.90
2022-12-22T15:35:43.775Z,3.30
2022-12-22T15:38:33.456Z,4.18
2022-12-22T15:41:22.403Z,3.47
2022-12-22T15:44:08.158Z,3.20
2022-12-22T15:46:56.531Z,3.45
2022-12-22T15:49:42.015Z,3.42
2022-12-22T15:52:27.492Z,5.32
2022-12-22T15:55:15.884Z,4.10
2022-12-22T15:58:01.531Z,5.30
2022-12-22T16:00:47.654Z,4.72
2022-12-22T16:03:33.251Z,4.65
2022-12-22T16:06:20.655Z,5.50
2022-12-22T16:09:12.714Z,4.97
2022-12-22T16:11:58.433Z,5.35
2022-12-22T16:14:50.561Z,4.95
2022-12-22T16:17:36.806Z,5.93
2022-12-22T16:20:25.857Z,5.85
2022-12-22T16:23:18.634Z,6.32
2022-12-22T16:26:05.122Z,6.65
2022-12-22T16:28:50.718Z,7.00
2022-12-22T16:31:36.000Z,6.15
2022-12-22T16:34:21.804Z,6.47
2022-12-22T16:37:07.945Z,7.40
2022-12-22T16:39:53.505Z,7.07
2022-12-22T16:45:47.159Z,7.40
2022-12-22T16:48:44.007Z,9.25
2022-12-22T16:51:34.649Z,7.53
2022-12-22T16:54:20.610Z,8.20
2022-12-22T16:57:06.095Z,7.85
2022-12-22T16:59:51.793Z,7.32
2022-12-22T17:02:37.691Z,7.65
2022-12-22T17:05:29.007Z,6.78
2022-12-22T17:08:23.546Z,7.72
2022-12-22T17:11:14.372Z,8.95
2022-12-22T17:14:06.864Z,9.27
2022-12-22T17:16:53.581Z,7.97
2022-12-22T17:19:39.808Z,8.40
2022-12-22T17:22:32.372Z,8.35
2022-12-22T17:25:26.344Z,8.18
2022-12-22T17:28:13.776Z,7.85
2022-12-22T17:30:59.527Z,9.55
2022-12-22T17:33:45.397Z,7.85
2022-12-22T17:36:36.814Z,7.63
2022-12-22T17:39:23.301Z,8.00
2022-12-22T17:42:35.128Z,10.70
2022-12-22T17:45:20.899Z,9.02
2022-12-22T17:48:07.113Z,8.13
2022-12-22T17:50:53.080Z,7.10
2022-12-22T17:53:41.062Z,7.43
2022-12-22T17:56:27.860Z,7.35
2022-12-22T17:59:13.623Z,9.70
2022-12-22T18:02:00.524Z,7.07
2022-12-22T18:04:47.512Z,6.70
2022-12-22T18:07:33.510Z,7.03
2022-12-22T18:10:32.369Z,7.85
2022-12-22T18:13:25.296Z,7.22
2022-12-22T18:16:15.105Z,6.57
2022-12-22T18:19:00.720Z,6.47
2022-12-22T18:21:46.479Z,7.38
2022-12-22T18:24:31.728Z,7.30
2022-12-22T18:27:17.999Z,5.72
2022-12-22T18:30:22.535Z,7.35
2022-12-22T18:33:08.253Z,6.88
2022-12-22T18:35:53.876Z,7.78
2022-12-22T18:38:39.484Z,7.07
2022-12-22T18:41:26.539Z,6.88
2022-12-22T18:44:16.825Z,5.20
2022-12-22T18:47:02.629Z,6.32
2022-12-22T18:49:48.028Z,5.97
2022-12-22T18:52:33.611Z,5.50
2022-12-22T18:55:24.917Z,6.97
2022-12-22T18:58:14.656Z,5.75
2022-12-22T19:01:00.304Z,5.45
2022-12-22T19:03:46.044Z,4.82
2022-12-22T19:06:31.934Z,6.00
2022-12-22T19:09:18.069Z,5.13
2022-12-22T19:12:03.722Z,7.50
2022-12-22T19:14:52.543Z,6.65
2022-12-22T19:17:38.286Z,6.65
2022-12-22T19:20:25.719Z,5.57
2022-12-22T19:23:21.701Z,5.38
2022-12-22T19:26:10.604Z,6.53
2022-12-22T19:29:01.471Z,6.32
2022-12-22T19:31:47.479Z,5.75
2022-12-22T19:34:32.926Z,5.90
2022-12-22T19:37:22.143Z,5.45
2022-12-22T19:40:08.632Z,5.75
2022-12-22T19:42:56.910Z,6.40
2022-12-22T19:45:43.125Z,5.40
2022-12-22T19:48:29.293Z,6.40
2022-12-22T19:51:17.789Z,5.75
2022-12-22T19:54:03.806Z,7.50
2022-12-22T19:56:52.765Z,5.40
2022-12-22T19:59:45.437Z,5.30
2022-12-22T20:02:33.368Z,5.38
2022-12-22T20:05:22.494Z,5.43
2022-12-22T20:08:07.986Z,5.72
2022-12-22T20:10:58.455Z,5.68
2022-12-22T20:13:45.906Z,4.70
2022-12-22T20:16:31.543Z,5.18
2022-12-22T20:19:17.024Z,6.35
2022-12-22T20:22:02.577Z,4.07
2022-12-22T20:24:49.932Z,4.50
2022-12-22T20:27:35.495Z,4.43
2022-12-22T20:30:20.911Z,3.90
2022-12-22T20:33:06.637Z,4.50
2022-12-22T20:35:53.874Z,5.20
2022-12-22T20:38:41.955Z,4.70
2022-12-22T20:41:27.940Z,4.57
2022-12-22T20:44:13.561Z,4.60
2022-12-22T20:46:58.862Z,4.35
2022-12-22T20:49:45.033Z,3.33
2022-12-22T20:52:30.440Z,3.50
2022-12-22T20:55:18.086Z,3.35
2022-12-22T20:58:14.478Z,4.00
2022-12-22T21:01:02.023Z,3.58
2022-12-22T21:03:47.753Z,4.10
2022-12-22T21:06:39.837Z,3.70
2022-12-22T21:09:25.972Z,4.05
2022-12-22T21:12:11.719Z,3.92
2022-12-22T21:14:57.468Z,2.88
2022-12-22T21:17:46.138Z,3.08
2022-12-22T21:20:32.401Z,3.20
2022-12-22T21:23:18.327Z,2.58
2022-12-22T21:26:08.083Z,2.55
2022-12-22T21:28:53.527Z,4.40
2022-12-22T21:31:38.834Z,3.72
2022-12-22T21:34:24.317Z,3.17
2022-12-22T21:37:17.470Z,2.45
2022-12-22T21:40:03.316Z,2.80
2022-12-22T21:42:52.066Z,2.80
2022-12-22T21:45:42.641Z,2.20
2022-12-22T21:48:29.247Z,2.03
2022-12-22T21:51:15.006Z,2.17
2022-12-22T21:54:01.465Z,1.88
2022-12-22T21:56:48.263Z,1.90
2022-12-22T21:59:33.868Z,1.33
2022-12-22T22:02:19.586Z,1.27
2022-12-22T22:05:05.702Z,1.50
2022-12-22T22:07:51.683Z,1.13
2022-12-22T22:10:39.818Z,1.25
2022-12-22T22:13:25.642Z,1.45
2022-12-22T22:16:11.052Z,1.60
2022-12-22T22:18:56.574Z,1.70
2022-12-22T22:21:41.980Z,1.90
2022-12-22T22:24:27.663Z,1.92
2022-12-22T22:27:13.453Z,1.20
2022-12-22T22:29:59.001Z,1.50
2022-12-22T22:32:45.097Z,1.20
2022-12-22T22:35:30.397Z,1.48
2022-12-22T22:38:17.730Z,1.17
2022-12-22T22:41:03.097Z,1.35
2022-12-22T22:43:48.687Z,1.17
2022-12-22T22:46:34.154Z,1.42
2022-12-22T22:49:26.251Z,1.02
2022-12-22T22:52:13.684Z,1.15
2022-12-22T22:54:59.352Z,1.30
2022-12-22T22:57:45.001Z,1.48
2022-12-22T23:00:30.875Z,1.15
2022-12-22T23:03:16.823Z,1.52
2022-12-22T23:06:08.241Z,1.30
2022-12-22T23:08:54.379Z,1.10
2022-12-22T23:11:39.711Z,1.70
2022-12-22T23:14:25.574Z,1.60
2022-12-22T23:17:11.188Z,1.40
2022-12-22T23:19:56.651Z,1.40
2022-12-22T23:22:41.922Z,1.33
2022-12-22T23:25:27.565Z,1.40
2022-12-22T23:28:13.283Z,1.55
2022-12-22T23:30:58.848Z,1.40
2022-12-22T23:33:44.570Z,1.30
2022-12-22T23:36:31.137Z,1.50
2022-12-22T23:39:17.312Z,1.55
2022-12-22T23:42:02.968Z,1.48
2022-12-22T23:44:48.617Z,1.52
2022-12-22T23:47:34.111Z,1.40
2022-12-22T23:50:19.705Z,1.58
2022-12-22T23:53:04.978Z,1.27
2022-12-22T23:55:50.595Z,1.17
2022-12-22T23:58:36.055Z,1.33
